sensor_id;sensor_type;location;lat;lon;timestamp;P1;durP1;ratioP1;P2;durP2;ratioP2
58071;SDS011;60383;46.626;18.866;2022-10-15T00:02:04;18.33;;;12.95;;
58071;SDS011;60383;46.626;18.866;2022-10-15T00:04:30;17.65;;;13.13;;
58071;SDS011;60383;46.626;18.866;2022-10-15T00:06:56;18.45;;;13.23;;
58071;SDS011;60383;46.626;18.866;2022-10-15T00:09:21;19.08;;;13.85;;
58071;SDS011;60383;46.626;18.866;2022-10-15T00:11:46;17.23;;;13.55;;
58071;SDS011;60383;46.626;18.866;2022-10-15T00:14:12;17.85;;;13.32;;
58071;SDS011;60383;46.626;18.866;2022-10-15T00:16:37;20.52;;;13.80;;
58071;SDS011;60383;46.626;18.866;2022-10-15T00:19:02;18.33;;;12.25;;
58071;SDS011;60383;46.626;18.866;2022-10-15T00:21:28;19.52;;;12.77;;
58071;SDS011;60383;46.626;18.866;2022-10-15T00:23:53;18.20;;;12.95;;
58071;SDS011;60383;46.626;18.866;2022-10-15T00:26:21;18.55;;;13.48;;
58071;SDS011;60383;46.626;18.866;2022-10-15T00:28:48;17.17;;;12.73;;
58071;SDS011;60383;46.626;18.866;2022-10-15T00:31:16;17.15;;;12.80;;
58071;SDS011;60383;46.626;18.866;2022-10-15T00:33:42;17.30;;;12.98;;
58071;SDS011;60383;46.626;18.866;2022-10-15T00:36:12;19.98;;;14.05;;
58071;SDS011;60383;46.626;18.866;2022-10-15T00:38:39;18.45;;;14.05;;
58071;SDS011;60383;46.626;18.866;2022-10-15T00:41:06;20.05;;;13.38;;
58071;SDS011;60383;46.626;18.866;2022-10-15T00:46:01;19.83;;;13.35;;
58071;SDS011;60383;46.626;18.866;2022-10-15T00:48:27;20.05;;;13.68;;
58071;SDS011;60383;46.626;18.866;2022-10-15T00:50:55;17.17;;;12.95;;
58071;SDS011;60383;46.626;18.866;2022-10-15T00:53:21;18.27;;;13.60;;
58071;SDS011;60383;46.626;18.866;2022-10-15T00:55:46;22.17;;;13.25;;
58071;SDS011;60383;46.626;18.866;2022-10-15T00:58:15;18.38;;;13.48;;
58071;SDS011;60383;46.626;18.866;2022-10-15T01:00:46;18.15;;;13.45;;
58071;SDS011;60383;46.626;18.866;2022-10-15T01:03:11;21.42;;;14.55;;
58071;SDS011;60383;46.626;18.866;2022-10-15T01:05:36;20.95;;;14.57;;
58071;SDS011;60383;46.626;18.866;2022-10-15T01:08:03;22.77;;;14.40;;
58071;SDS011;60383;46.626;18.866;2022-10-15T01:10:39;20.65;;;14.35;;
58071;SDS011;60383;46.626;18.866;2022-10-15T01:13:11;22.30;;;15.40;;
58071;SDS011;60383;46.626;18.866;2022-10-15T01:15:53;24.02;;;15.45;;
58071;SDS011;60383;46.626;18.866;2022-10-15T01:18:23;23.65;;;15.23;;
58071;SDS011;60383;46.626;18.866;2022-10-15T01:32:13;23.85;;;16.65;;
58071;SDS011;60383;46.626;18.866;2022-10-15T01:37:34;29.38;;;19.13;;
58071;SDS011;60383;46.626;18.866;2022-10-15T01:40:18;24.42;;;16.85;;
58071;SDS011;60383;46.626;18.866;2022-10-15T01:42:50;23.40;;;16.05;;
58071;SDS011;60383;46.626;18.866;2022-10-15T01:45:23;23.40;;;15.85;;
58071;SDS011;60383;46.626;18.866;2022-10-15T01:47:55;23.80;;;16.13;;
58071;SDS011;60383;46.626;18.866;2022-10-15T01:50:23;29.15;;;19.20;;
58071;SDS011;60383;46.626;18.866;2022-10-15T01:52:51;25.48;;;17.70;;
58071;SDS011;60383;46.626;18.866;2022-10-15T01:55:20;23.92;;;16.63;;
58071;SDS011;60383;46.626;18.866;2022-10-15T01:57:48;23.13;;;16.27;;
58071;SDS011;60383;46.626;18.866;2022-10-15T02:00:14;26.45;;;16.48;;
58071;SDS011;60383;46.626;18.866;2022-10-15T02:02:40;22.02;;;15.40;;
58071;SDS011;60383;46.626;18.866;2022-10-15T02:05:09;22.95;;;16.60;;
58071;SDS011;60383;46.626;18.866;2022-10-15T02:18:39;20.58;;;15.30;;
58071;SDS011;60383;46.626;18.866;2022-10-15T02:21:09;29.13;;;15.98;;
58071;SDS011;60383;46.626;18.866;2022-10-15T02:23:41;22.67;;;15.50;;
58071;SDS011;60383;46.626;18.866;2022-10-15T02:26:10;24.38;;;14.90;;
58071;SDS011;60383;46.626;18.866;2022-10-15T02:28:38;24.65;;;15.75;;
58071;SDS011;60383;46.626;18.866;2022-10-15T02:31:07;25.45;;;15.95;;
58071;SDS011;60383;46.626;18.866;2022-10-15T02:33:36;22.70;;;15.05;;
58071;SDS011;60383;46.626;18.866;2022-10-15T02:36:03;22.15;;;15.30;;
58071;SDS011;60383;46.626;18.866;2022-10-15T02:38:29;23.38;;;15.13;;
58071;SDS011;60383;46.626;18.866;2022-10-15T02:40:56;22.33;;;15.18;;
58071;SDS011;60383;46.626;18.866;2022-10-15T02:43:22;22.83;;;15.52;;
58071;SDS011;60383;46.626;18.866;2022-10-15T02:45:48;25.10;;;15.63;;
58071;SDS011;60383;46.626;18.866;2022-10-15T02:48:13;20.40;;;14.95;;
58071;SDS011;60383;46.626;18.866;2022-10-15T02:50:39;22.38;;;14.95;;
58071;SDS011;60383;46.626;18.866;2022-10-15T02:53:04;26.60;;;15.48;;
58071;SDS011;60383;46.626;18.866;2022-10-15T02:55:30;21.23;;;15.48;;
58071;SDS011;60383;46.626;18.866;2022-10-15T02:57:55;24.67;;;15.80;;
58071;SDS011;60383;46.626;18.866;2022-10-15T03:00:21;23.85;;;15.02;;
58071;SDS011;60383;46.626;18.866;2022-10-15T03:02:46;22.55;;;14.82;;
58071;SDS011;60383;46.626;18.866;2022-10-15T03:05:12;23.13;;;15.50;;
58071;SDS011;60383;46.626;18.866;2022-10-15T03:07:37;23.95;;;15.43;;
58071;SDS011;60383;46.626;18.866;2022-10-15T03:10:03;20.83;;;14.57;;
58071;SDS011;60383;46.626;18.866;2022-10-15T03:12:29;21.58;;;14.65;;
58071;SDS011;60383;46.626;18.866;2022-10-15T03:14:54;23.55;;;15.13;;
58071;SDS011;60383;46.626;18.866;2022-10-15T03:17:20;20.73;;;14.77;;
58071;SDS011;60383;46.626;18.866;2022-10-15T03:19:45;23.17;;;15.90;;
58071;SDS011;60383;46.626;18.866;2022-10-15T03:22:11;22.92;;;14.35;;
58071;SDS011;60383;46.626;18.866;2022-10-15T03:24:36;19.92;;;13.68;;
58071;SDS011;60383;46.626;18.866;2022-10-15T03:27:01;21.77;;;14.13;;
58071;SDS011;60383;46.626;18.866;2022-10-15T03:29:27;19.38;;;13.95;;
58071;SDS011;60383;46.626;18.866;2022-10-15T03:31:52;19.52;;;14.63;;
58071;SDS011;60383;46.626;18.866;2022-10-15T03:34:18;19.00;;;14.13;;
58071;SDS011;60383;46.626;18.866;2022-10-15T03:36:43;19.58;;;14.05;;
58071;SDS011;60383;46.626;18.866;2022-10-15T03:39:09;20.33;;;14.10;;
58071;SDS011;60383;46.626;18.866;2022-10-15T03:41:36;19.58;;;14.30;;
58071;SDS011;60383;46.626;18.866;2022-10-15T03:44:02;21.27;;;14.75;;
58071;SDS011;60383;46.626;18.866;2022-10-15T03:46:29;19.38;;;13.32;;
58071;SDS011;60383;46.626;18.866;2022-10-15T03:48:54;17.65;;;12.82;;
58071;SDS011;60383;46.626;18.866;2022-10-15T03:51:19;18.92;;;13.57;;
58071;SDS011;60383;46.626;18.866;2022-10-15T03:53:45;17.73;;;11.98;;
58071;SDS011;60383;46.626;18.866;2022-10-15T03:56:10;19.88;;;13.60;;
58071;SDS011;60383;46.626;18.866;2022-10-15T03:58:36;19.02;;;12.93;;
58071;SDS011;60383;46.626;18.866;2022-10-15T04:01:06;18.88;;;13.82;;
58071;SDS011;60383;46.626;18.866;2022-10-15T04:03:33;19.80;;;14.20;;
58071;SDS011;60383;46.626;18.866;2022-10-15T04:05:58;18.23;;;13.80;;
58071;SDS011;60383;46.626;18.866;2022-10-15T04:08:24;21.67;;;14.48;;
58071;SDS011;60383;46.626;18.866;2022-10-15T04:10:49;23.52;;;16.27;;
58071;SDS011;60383;46.626;18.866;2022-10-15T04:13:15;23.77;;;16.13;;
58071;SDS011;60383;46.626;18.866;2022-10-15T04:15:41;24.58;;;16.00;;
58071;SDS011;60383;46.626;18.866;2022-10-15T04:18:07;23.20;;;16.45;;
58071;SDS011;60383;46.626;18.866;2022-10-15T04:20:32;22.98;;;15.88;;
58071;SDS011;60383;46.626;18.866;2022-10-15T04:22:57;18.15;;;13.88;;
58071;SDS011;60383;46.626;18.866;2022-10-15T04:25:23;21.70;;;15.43;;
58071;SDS011;60383;46.626;18.866;2022-10-15T04:27:48;18.15;;;13.63;;
58071;SDS011;60383;46.626;18.866;2022-10-15T04:30:14;19.08;;;14.27;;
58071;SDS011;60383;46.626;18.866;2022-10-15T04:32:39;18.88;;;15.52;;
58071;SDS011;60383;46.626;18.866;2022-10-15T04:35:04;20.92;;;14.93;;
58071;SDS011;60383;46.626;18.866;2022-10-15T04:37:33;20.52;;;15.07;;
58071;SDS011;60383;46.626;18.866;2022-10-15T04:39:59;20.58;;;15.50;;
58071;SDS011;60383;46.626;18.866;2022-10-15T04:42:27;22.40;;;16.23;;
58071;SDS011;60383;46.626;18.866;2022-10-15T04:44:53;22.75;;;16.33;;
58071;SDS011;60383;46.626;18.866;2022-10-15T04:47:18;22.65;;;16.27;;
58071;SDS011;60383;46.626;18.866;2022-10-15T04:49:43;22.08;;;15.93;;
58071;SDS011;60383;46.626;18.866;2022-10-15T04:52:09;22.25;;;16.88;;
58071;SDS011;60383;46.626;18.866;2022-10-15T04:54:34;21.08;;;15.60;;
58071;SDS011;60383;46.626;18.866;2022-10-15T04:57:01;22.70;;;15.93;;
58071;SDS011;60383;46.626;18.866;2022-10-15T04:59:27;22.08;;;16.42;;
58071;SDS011;60383;46.626;18.866;2022-10-15T05:01:53;20.27;;;15.93;;
58071;SDS011;60383;46.626;18.866;2022-10-15T05:04:18;21.05;;;16.35;;
58071;SDS011;60383;46.626;18.866;2022-10-15T05:06:43;23.58;;;16.08;;
58071;SDS011;60383;46.626;18.866;2022-10-15T05:09:09;21.40;;;15.68;;
58071;SDS011;60383;46.626;18.866;2022-10-15T05:11:34;21.70;;;15.80;;
58071;SDS011;60383;46.626;18.866;2022-10-15T05:14:02;21.38;;;15.57;;
58071;SDS011;60383;46.626;18.866;2022-10-15T05:16:28;21.13;;;15.65;;
58071;SDS011;60383;46.626;18.866;2022-10-15T05:18:55;22.15;;;15.13;;
58071;SDS011;60383;46.626;18.866;2022-10-15T05:21:22;19.50;;;15.02;;
58071;SDS011;60383;46.626;18.866;2022-10-15T05:23:47;21.10;;;14.95;;
58071;SDS011;60383;46.626;18.866;2022-10-15T05:26:15;22.48;;;17.15;;
58071;SDS011;60383;46.626;18.866;2022-10-15T05:28:42;19.85;;;14.82;;
58071;SDS011;60383;46.626;18.866;2022-10-15T05:31:11;21.73;;;16.35;;
58071;SDS011;60383;46.626;18.866;2022-10-15T05:33:38;20.98;;;16.30;;
58071;SDS011;60383;46.626;18.866;2022-10-15T05:36:14;26.10;;;20.73;;
58071;SDS011;60383;46.626;18.866;2022-10-15T05:38:41;20.33;;;14.85;;
58071;SDS011;60383;46.626;18.866;2022-10-15T05:41:07;17.88;;;14.15;;
58071;SDS011;60383;46.626;18.866;2022-10-15T05:43:33;21.75;;;14.75;;
58071;SDS011;60383;46.626;18.866;2022-10-15T05:45:58;18.33;;;13.98;;
58071;SDS011;60383;46.626;18.866;2022-10-15T05:48:24;18.23;;;13.70;;
58071;SDS011;60383;46.626;18.866;2022-10-15T05:50:49;17.27;;;14.52;;
58071;SDS011;60383;46.626;18.866;2022-10-15T05:53:15;19.85;;;13.88;;
58071;SDS011;60383;46.626;18.866;2022-10-15T05:55:40;20.55;;;14.38;;
58071;SDS011;60383;46.626;18.866;2022-10-15T05:58:06;18.08;;;14.05;;
58071;SDS011;60383;46.626;18.866;2022-10-15T06:00:31;17.95;;;13.82;;
58071;SDS011;60383;46.626;18.866;2022-10-15T06:02:57;18.70;;;13.63;;
58071;SDS011;60383;46.626;18.866;2022-10-15T06:05:22;21.67;;;16.67;;
58071;SDS011;60383;46.626;18.866;2022-10-15T06:07:48;19.35;;;13.38;;
58071;SDS011;60383;46.626;18.866;2022-10-15T06:10:14;20.35;;;15.30;;
58071;SDS011;60383;46.626;18.866;2022-10-15T06:12:39;16.83;;;13.07;;
58071;SDS011;60383;46.626;18.866;2022-10-15T06:15:05;15.75;;;13.20;;
58071;SDS011;60383;46.626;18.866;2022-10-15T06:17:32;16.65;;;12.93;;
58071;SDS011;60383;46.626;18.866;2022-10-15T06:20:00;20.65;;;13.50;;
58071;SDS011;60383;46.626;18.866;2022-10-15T06:22:28;17.10;;;12.52;;
58071;SDS011;60383;46.626;18.866;2022-10-15T06:24:54;17.60;;;12.80;;
58071;SDS011;60383;46.626;18.866;2022-10-15T06:27:20;16.67;;;13.45;;
58071;SDS011;60383;46.626;18.866;2022-10-15T06:29:45;17.35;;;13.38;;
58071;SDS011;60383;46.626;18.866;2022-10-15T06:32:11;18.10;;;13.40;;
58071;SDS011;60383;46.626;18.866;2022-10-15T06:34:36;21.17;;;13.75;;
58071;SDS011;60383;46.626;18.866;2022-10-15T06:37:02;17.00;;;13.35;;
58071;SDS011;60383;46.626;18.866;2022-10-15T06:39:27;17.33;;;14.38;;
58071;SDS011;60383;46.626;18.866;2022-10-15T06:41:53;16.67;;;12.90;;
58071;SDS011;60383;46.626;18.866;2022-10-15T06:44:18;16.40;;;13.18;;
58071;SDS011;60383;46.626;18.866;2022-10-15T06:46:44;17.58;;;13.18;;
58071;SDS011;60383;46.626;18.866;2022-10-15T06:49:09;18.23;;;13.88;;
58071;SDS011;60383;46.626;18.866;2022-10-15T06:51:35;19.77;;;15.73;;
58071;SDS011;60383;46.626;18.866;2022-10-15T06:54:01;17.65;;;13.57;;
58071;SDS011;60383;46.626;18.866;2022-10-15T06:56:27;16.63;;;14.43;;
58071;SDS011;60383;46.626;18.866;2022-10-15T06:58:52;19.55;;;14.65;;
58071;SDS011;60383;46.626;18.866;2022-10-15T07:01:18;17.02;;;13.15;;
58071;SDS011;60383;46.626;18.866;2022-10-15T07:03:43;16.75;;;12.90;;
58071;SDS011;60383;46.626;18.866;2022-10-15T07:06:09;16.33;;;13.70;;
58071;SDS011;60383;46.626;18.866;2022-10-15T07:08:35;17.50;;;12.98;;
58071;SDS011;60383;46.626;18.866;2022-10-15T07:11:04;18.58;;;13.25;;
58071;SDS011;60383;46.626;18.866;2022-10-15T07:13:32;15.90;;;13.10;;
58071;SDS011;60383;46.626;18.866;2022-10-15T07:16:01;16.98;;;12.88;;
58071;SDS011;60383;46.626;18.866;2022-10-15T07:18:28;16.50;;;13.32;;
58071;SDS011;60383;46.626;18.866;2022-10-15T07:20:55;18.90;;;13.80;;
58071;SDS011;60383;46.626;18.866;2022-10-15T07:23:21;15.27;;;12.55;;
58071;SDS011;60383;46.626;18.866;2022-10-15T07:25:46;17.70;;;13.98;;
58071;SDS011;60383;46.626;18.866;2022-10-15T07:28:11;17.38;;;13.88;;
58071;SDS011;60383;46.626;18.866;2022-10-15T07:30:37;16.67;;;12.27;;
58071;SDS011;60383;46.626;18.866;2022-10-15T07:33:02;16.75;;;13.73;;
58071;SDS011;60383;46.626;18.866;2022-10-15T07:35:28;18.67;;;13.55;;
58071;SDS011;60383;46.626;18.866;2022-10-15T07:37:53;17.90;;;14.02;;
58071;SDS011;60383;46.626;18.866;2022-10-15T07:40:19;17.60;;;14.20;;
58071;SDS011;60383;46.626;18.866;2022-10-15T07:42:51;19.88;;;13.98;;
58071;SDS011;60383;46.626;18.866;2022-10-15T07:45:18;17.42;;;13.18;;
58071;SDS011;60383;46.626;18.866;2022-10-15T07:47:43;14.98;;;11.82;;
58071;SDS011;60383;46.626;18.866;2022-10-15T07:50:09;16.25;;;11.77;;
58071;SDS011;60383;46.626;18.866;2022-10-15T07:52:34;15.80;;;12.77;;
58071;SDS011;60383;46.626;18.866;2022-10-15T07:54:59;17.25;;;12.77;;
58071;SDS011;60383;46.626;18.866;2022-10-15T07:57:25;15.15;;;11.00;;
58071;SDS011;60383;46.626;18.866;2022-10-15T07:59:50;15.70;;;12.07;;
58071;SDS011;60383;46.626;18.866;2022-10-15T08:02:16;18.52;;;12.43;;
58071;SDS011;60383;46.626;18.866;2022-10-15T08:04:42;15.23;;;12.13;;
58071;SDS011;60383;46.626;18.866;2022-10-15T08:07:08;16.95;;;11.02;;
58071;SDS011;60383;46.626;18.866;2022-10-15T08:09:33;15.10;;;10.43;;
58071;SDS011;60383;46.626;18.866;2022-10-15T08:11:58;17.13;;;10.93;;
58071;SDS011;60383;46.626;18.866;2022-10-15T08:14:24;12.73;;;10.93;;
58071;SDS011;60383;46.626;18.866;2022-10-15T08:16:50;14.15;;;10.95;;
58071;SDS011;60383;46.626;18.866;2022-10-15T08:19:15;15.68;;;10.43;;
58071;SDS011;60383;46.626;18.866;2022-10-15T08:21:44;18.08;;;11.20;;
58071;SDS011;60383;46.626;18.866;2022-10-15T08:24:09;13.50;;;10.38;;
58071;SDS011;60383;46.626;18.866;2022-10-15T08:26:35;16.00;;;10.30;;
58071;SDS011;60383;46.626;18.866;2022-10-15T08:29:01;13.60;;;10.25;;
58071;SDS011;60383;46.626;18.866;2022-10-15T08:31:26;12.90;;;10.25;;
58071;SDS011;60383;46.626;18.866;2022-10-15T08:33:52;18.65;;;11.32;;
58071;SDS011;60383;46.626;18.866;2022-10-15T08:36:17;12.75;;;9.43;;
58071;SDS011;60383;46.626;18.866;2022-10-15T08:38:43;14.50;;;9.75;;
58071;SDS011;60383;46.626;18.866;2022-10-15T08:43:58;13.50;;;9.93;;
58071;SDS011;60383;46.626;18.866;2022-10-15T08:46:27;12.30;;;9.65;;
58071;SDS011;60383;46.626;18.866;2022-10-15T08:48:59;11.30;;;8.52;;
58071;SDS011;60383;46.626;18.866;2022-10-15T08:51:27;11.27;;;8.75;;
58071;SDS011;60383;46.626;18.866;2022-10-15T08:54:24;13.05;;;8.90;;
58071;SDS011;60383;46.626;18.866;2022-10-15T08:56:52;14.43;;;8.85;;
58071;SDS011;60383;46.626;18.866;2022-10-15T09:02:03;11.27;;;7.95;;
58071;SDS011;60383;46.626;18.866;2022-10-15T09:07:49;11.48;;;7.70;;
58071;SDS011;60383;46.626;18.866;2022-10-15T09:13:17;9.32;;;6.85;;
58071;SDS011;60383;46.626;18.866;2022-10-15T09:15:51;11.13;;;7.68;;
58071;SDS011;60383;46.626;18.866;2022-10-15T09:18:24;9.43;;;6.75;;
58071;SDS011;60383;46.626;18.866;2022-10-15T09:20:54;10.85;;;6.80;;
58071;SDS011;60383;46.626;18.866;2022-10-15T09:23:22;9.88;;;7.15;;
58071;SDS011;60383;46.626;18.866;2022-10-15T09:25:54;9.07;;;6.63;;
58071;SDS011;60383;46.626;18.866;2022-10-15T09:28:26;8.40;;;6.30;;
58071;SDS011;60383;46.626;18.866;2022-10-15T09:31:02;9.18;;;6.45;;
58071;SDS011;60383;46.626;18.866;2022-10-15T09:41:12;9.40;;;6.60;;
58071;SDS011;60383;46.626;18.866;2022-10-15T09:43:43;9.77;;;6.30;;
58071;SDS011;60383;46.626;18.866;2022-10-15T09:48:42;13.13;;;6.78;;
58071;SDS011;60383;46.626;18.866;2022-10-15T09:57:55;9.57;;;6.10;;
58071;SDS011;60383;46.626;18.866;2022-10-15T10:00:26;7.75;;;5.75;;
58071;SDS011;60383;46.626;18.866;2022-10-15T10:03:25;8.55;;;5.70;;
58071;SDS011;60383;46.626;18.866;2022-10-15T10:06:08;7.95;;;5.35;;
58071;SDS011;60383;46.626;18.866;2022-10-15T10:11:23;8.50;;;5.60;;
58071;SDS011;60383;46.626;18.866;2022-10-15T10:13:55;7.47;;;5.80;;
58071;SDS011;60383;46.626;18.866;2022-10-15T10:16:23;9.48;;;5.45;;
58071;SDS011;60383;46.626;18.866;2022-10-15T10:21:37;10.27;;;5.68;;
58071;SDS011;60383;46.626;18.866;2022-10-15T10:24:25;10.40;;;5.93;;
58071;SDS011;60383;46.626;18.866;2022-10-15T10:26:54;7.00;;;5.22;;
58071;SDS011;60383;46.626;18.866;2022-10-15T10:29:21;7.13;;;5.25;;
58071;SDS011;60383;46.626;18.866;2022-10-15T10:31:47;8.73;;;5.20;;
58071;SDS011;60383;46.626;18.866;2022-10-15T10:34:16;9.18;;;5.63;;
58071;SDS011;60383;46.626;18.866;2022-10-15T10:36:48;7.35;;;5.20;;
58071;SDS011;60383;46.626;18.866;2022-10-15T10:39:25;7.35;;;5.03;;
58071;SDS011;60383;46.626;18.866;2022-10-15T10:41:57;10.80;;;5.25;;
58071;SDS011;60383;46.626;18.866;2022-10-15T10:44:35;9.13;;;4.90;;
58071;SDS011;60383;46.626;18.866;2022-10-15T10:54:56;6.68;;;5.43;;
58071;SDS011;60383;46.626;18.866;2022-10-15T10:57:28;6.30;;;5.25;;
58071;SDS011;60383;46.626;18.866;2022-10-15T11:00:05;11.23;;;5.22;;
58071;SDS011;60383;46.626;18.866;2022-10-15T11:02:32;6.80;;;4.72;;
58071;SDS011;60383;46.626;18.866;2022-10-15T11:05:02;6.43;;;4.68;;
58071;SDS011;60383;46.626;18.866;2022-10-15T11:10:23;10.73;;;5.35;;
58071;SDS011;60383;46.626;18.866;2022-10-15T11:12:58;6.78;;;4.25;;
58071;SDS011;60383;46.626;18.866;2022-10-15T11:23:52;7.15;;;4.75;;
58071;SDS011;60383;46.626;18.866;2022-10-15T11:29:06;6.97;;;4.97;;
58071;SDS011;60383;46.626;18.866;2022-10-15T11:45:48;8.13;;;5.03;;
58071;SDS011;60383;46.626;18.866;2022-10-15T11:48:33;6.20;;;4.72;;
58071;SDS011;60383;46.626;18.866;2022-10-15T11:56:19;9.40;;;4.97;;
58071;SDS011;60383;46.626;18.866;2022-10-15T11:58:50;6.28;;;4.85;;
58071;SDS011;60383;46.626;18.866;2022-10-15T12:01:26;7.10;;;5.18;;
58071;SDS011;60383;46.626;18.866;2022-10-15T12:03:58;10.55;;;5.45;;
58071;SDS011;60383;46.626;18.866;2022-10-15T12:06:30;8.55;;;4.75;;
58071;SDS011;60383;46.626;18.866;2022-10-15T12:09:01;7.90;;;5.40;;
58071;SDS011;60383;46.626;18.866;2022-10-15T12:16:44;6.90;;;4.57;;
58071;SDS011;60383;46.626;18.866;2022-10-15T12:19:19;11.55;;;7.60;;
58071;SDS011;60383;46.626;18.866;2022-10-15T12:27:21;10.27;;;5.75;;
58071;SDS011;60383;46.626;18.866;2022-10-15T12:29:52;8.05;;;5.07;;
58071;SDS011;60383;46.626;18.866;2022-10-15T12:32:39;9.52;;;4.78;;
58071;SDS011;60383;46.626;18.866;2022-10-15T12:37:38;6.80;;;4.68;;
58071;SDS011;60383;46.626;18.866;2022-10-15T12:40:17;9.68;;;4.68;;
58071;SDS011;60383;46.626;18.866;2022-10-15T12:43:29;9.18;;;4.10;;
58071;SDS011;60383;46.626;18.866;2022-10-15T12:45:52;7.50;;;4.53;;
58071;SDS011;60383;46.626;18.866;2022-10-15T12:48:26;9.27;;;4.90;;
58071;SDS011;60383;46.626;18.866;2022-10-15T12:53:42;9.95;;;4.32;;
58071;SDS011;60383;46.626;18.866;2022-10-15T12:56:12;7.03;;;4.40;;
58071;SDS011;60383;46.626;18.866;2022-10-15T12:58:48;9.00;;;5.00;;
58071;SDS011;60383;46.626;18.866;2022-10-15T13:11:36;6.70;;;4.60;;
58071;SDS011;60383;46.626;18.866;2022-10-15T13:16:36;5.72;;;4.10;;
58071;SDS011;60383;46.626;18.866;2022-10-15T13:19:02;11.32;;;4.50;;
58071;SDS011;60383;46.626;18.866;2022-10-15T13:21:48;7.20;;;4.65;;
58071;SDS011;60383;46.626;18.866;2022-10-15T13:24:25;6.07;;;4.22;;
58071;SDS011;60383;46.626;18.866;2022-10-15T13:26:53;7.30;;;4.90;;
58071;SDS011;60383;46.626;18.866;2022-10-15T13:29:20;6.47;;;4.43;;
58071;SDS011;60383;46.626;18.866;2022-10-15T13:31:52;6.22;;;4.20;;
58071;SDS011;60383;46.626;18.866;2022-10-15T13:34:33;5.25;;;4.30;;
58071;SDS011;60383;46.626;18.866;2022-10-15T13:37:01;5.60;;;4.10;;
58071;SDS011;60383;46.626;18.866;2022-10-15T13:39:38;5.47;;;4.50;;
58071;SDS011;60383;46.626;18.866;2022-10-15T13:42:08;7.10;;;4.00;;
58071;SDS011;60383;46.626;18.866;2022-10-15T13:44:34;7.30;;;4.60;;
58071;SDS011;60383;46.626;18.866;2022-10-15T13:47:00;7.63;;;4.68;;
58071;SDS011;60383;46.626;18.866;2022-10-15T13:49:26;5.13;;;4.22;;
58071;SDS011;60383;46.626;18.866;2022-10-15T13:51:51;7.03;;;4.45;;
58071;SDS011;60383;46.626;18.866;2022-10-15T13:54:30;8.98;;;4.53;;
58071;SDS011;60383;46.626;18.866;2022-10-15T13:56:56;7.95;;;4.72;;
58071;SDS011;60383;46.626;18.866;2022-10-15T13:59:24;6.68;;;4.47;;
58071;SDS011;60383;46.626;18.866;2022-10-15T14:01:56;9.98;;;4.82;;
58071;SDS011;60383;46.626;18.866;2022-10-15T14:04:25;14.52;;;5.05;;
58071;SDS011;60383;46.626;18.866;2022-10-15T14:06:58;9.43;;;4.38;;
58071;SDS011;60383;46.626;18.866;2022-10-15T14:09:28;7.80;;;4.78;;
58071;SDS011;60383;46.626;18.866;2022-10-15T14:11:54;7.15;;;4.85;;
58071;SDS011;60383;46.626;18.866;2022-10-15T14:16:59;8.60;;;4.57;;
58071;SDS011;60383;46.626;18.866;2022-10-15T14:19:27;8.70;;;4.53;;
58071;SDS011;60383;46.626;18.866;2022-10-15T14:21:55;8.30;;;4.55;;
58071;SDS011;60383;46.626;18.866;2022-10-15T14:24:23;6.43;;;4.88;;
58071;SDS011;60383;46.626;18.866;2022-10-15T14:26:54;9.73;;;5.13;;
58071;SDS011;60383;46.626;18.866;2022-10-15T14:29:27;7.28;;;5.13;;
58071;SDS011;60383;46.626;18.866;2022-10-15T14:32:00;10.82;;;4.90;;
58071;SDS011;60383;46.626;18.866;2022-10-15T14:36:51;8.80;;;4.68;;
58071;SDS011;60383;46.626;18.866;2022-10-15T14:39:29;8.13;;;4.95;;
58071;SDS011;60383;46.626;18.866;2022-10-15T14:42:00;7.70;;;5.05;;
58071;SDS011;60383;46.626;18.866;2022-10-15T14:44:43;7.63;;;4.88;;
58071;SDS011;60383;46.626;18.866;2022-10-15T14:47:20;7.53;;;4.72;;
58071;SDS011;60383;46.626;18.866;2022-10-15T14:49:55;8.45;;;5.07;;
58071;SDS011;60383;46.626;18.866;2022-10-15T14:52:24;12.02;;;5.35;;
58071;SDS011;60383;46.626;18.866;2022-10-15T14:54:57;11.15;;;4.95;;
58071;SDS011;60383;46.626;18.866;2022-10-15T14:57:33;8.65;;;5.38;;
58071;SDS011;60383;46.626;18.866;2022-10-15T15:00:01;6.63;;;5.40;;
58071;SDS011;60383;46.626;18.866;2022-10-15T15:02:29;11.27;;;5.30;;
58071;SDS011;60383;46.626;18.866;2022-10-15T15:05:22;9.05;;;5.10;;
58071;SDS011;60383;46.626;18.866;2022-10-15T15:07:49;8.70;;;4.82;;
58071;SDS011;60383;46.626;18.866;2022-10-15T15:10:15;13.77;;;5.30;;
58071;SDS011;60383;46.626;18.866;2022-10-15T15:12:42;11.63;;;5.70;;
58071;SDS011;60383;46.626;18.866;2022-10-15T15:15:14;7.30;;;5.25;;
58071;SDS011;60383;46.626;18.866;2022-10-15T15:17:41;12.75;;;5.75;;
58071;SDS011;60383;46.626;18.866;2022-10-15T15:20:06;10.07;;;5.47;;
58071;SDS011;60383;46.626;18.866;2022-10-15T15:22:33;8.02;;;5.50;;
58071;SDS011;60383;46.626;18.866;2022-10-15T15:25:01;8.25;;;5.45;;
58071;SDS011;60383;46.626;18.866;2022-10-15T15:27:31;9.23;;;5.15;;
58071;SDS011;60383;46.626;18.866;2022-10-15T15:30:01;9.65;;;5.90;;
58071;SDS011;60383;46.626;18.866;2022-10-15T15:32:28;7.28;;;5.57;;
58071;SDS011;60383;46.626;18.866;2022-10-15T15:34:54;10.50;;;5.47;;
58071;SDS011;60383;46.626;18.866;2022-10-15T15:37:22;9.43;;;5.35;;
58071;SDS011;60383;46.626;18.866;2022-10-15T15:39:48;9.77;;;6.13;;
58071;SDS011;60383;46.626;18.866;2022-10-15T15:42:19;8.98;;;5.82;;
58071;SDS011;60383;46.626;18.866;2022-10-15T15:44:46;9.05;;;5.72;;
58071;SDS011;60383;46.626;18.866;2022-10-15T15:47:11;7.15;;;5.30;;
58071;SDS011;60383;46.626;18.866;2022-10-15T15:49:37;10.88;;;6.00;;
58071;SDS011;60383;46.626;18.866;2022-10-15T15:52:03;9.02;;;5.80;;
58071;SDS011;60383;46.626;18.866;2022-10-15T15:54:37;10.48;;;6.25;;
58071;SDS011;60383;46.626;18.866;2022-10-15T15:57:02;10.25;;;6.10;;
58071;SDS011;60383;46.626;18.866;2022-10-15T15:59:28;7.68;;;5.63;;
58071;SDS011;60383;46.626;18.866;2022-10-15T16:01:53;11.88;;;6.57;;
58071;SDS011;60383;46.626;18.866;2022-10-15T16:04:19;9.18;;;5.78;;
58071;SDS011;60383;46.626;18.866;2022-10-15T16:06:45;10.10;;;6.30;;
58071;SDS011;60383;46.626;18.866;2022-10-15T16:09:13;9.98;;;6.03;;
58071;SDS011;60383;46.626;18.866;2022-10-15T16:11:39;14.77;;;6.53;;
58071;SDS011;60383;46.626;18.866;2022-10-15T16:14:05;9.10;;;6.55;;
58071;SDS011;60383;46.626;18.866;2022-10-15T16:16:30;18.27;;;9.70;;
58071;SDS011;60383;46.626;18.866;2022-10-15T16:18:56;11.95;;;7.15;;
58071;SDS011;60383;46.626;18.866;2022-10-15T16:21:24;9.30;;;6.90;;
58071;SDS011;60383;46.626;18.866;2022-10-15T16:23:51;9.57;;;6.20;;
58071;SDS011;60383;46.626;18.866;2022-10-15T16:26:16;8.35;;;6.38;;
58071;SDS011;60383;46.626;18.866;2022-10-15T16:28:42;11.07;;;6.25;;
58071;SDS011;60383;46.626;18.866;2022-10-15T16:33:44;9.85;;;6.40;;
58071;SDS011;60383;46.626;18.866;2022-10-15T16:36:10;9.93;;;5.85;;
58071;SDS011;60383;46.626;18.866;2022-10-15T16:38:40;6.82;;;5.53;;
58071;SDS011;60383;46.626;18.866;2022-10-15T16:41:07;6.97;;;5.65;;
58071;SDS011;60383;46.626;18.866;2022-10-15T16:43:34;8.13;;;6.15;;
58071;SDS011;60383;46.626;18.866;2022-10-15T16:45:59;7.35;;;5.40;;